Terminal Aerodrome Forecast
Issued by NWS Wilmington, OH

Home | Current Version | Previous Version | Text Only | Print | Product List | Glossary On
Versions: 1 2 3 4 5 6 7 8 9 10 11 12 13 14 15 16 17 18 19 20 21 22 23 24
000
FTUS41 KILN 241000 AAA
TAFILN
TAF AMD
KILN 241019Z 2410/2506 VRB03KT P6SM BKN200
      TEMPO 2411/2413 5SM BR
     FM241500 26005KT P6SM SCT100
     FM242300 24003KT P6SM SCT040=

USA.gov is the U.S. government's official web portal to all federal, state and local government web resources and services.